createdAt,value
2023-10-30T00:00:15.037Z,13.48
2023-10-30T00:02:43.027Z,12.70
2023-10-30T00:05:12.597Z,11.48
2023-10-30T00:07:41.038Z,15.82
2023-10-30T00:10:09.523Z,9.32
2023-10-30T00:12:57.034Z,13.75
2023-10-30T00:15:27.244Z,8.63
2023-10-30T00:17:55.082Z,13.98
2023-10-30T00:20:22.815Z,10.98
2023-10-30T00:22:51.024Z,9.93
2023-10-30T00:25:19.376Z,9.05
2023-10-30T00:27:48.045Z,13.88
2023-10-30T00:30:17.298Z,13.35
2023-10-30T00:32:45.091Z,13.77
2023-10-30T00:35:13.173Z,8.48
2023-10-30T00:37:41.042Z,12.40
2023-10-30T00:40:09.938Z,9.20
2023-10-30T00:42:37.845Z,6.90
2023-10-30T00:45:07.385Z,14.02
2023-10-30T00:47:39.670Z,14.73
2023-10-30T00:50:09.115Z,10.13
2023-10-30T00:52:36.794Z,11.20
2023-10-30T00:55:05.086Z,14.77
2023-10-30T00:57:32.836Z,7.55
2023-10-30T01:00:00.823Z,14.03
2023-10-30T01:02:29.283Z,13.23
2023-10-30T01:04:59.253Z,11.82
2023-10-30T01:07:28.088Z,8.70
2023-10-30T01:09:55.872Z,10.43
2023-10-30T01:12:23.651Z,7.30
2023-10-30T01:14:52.105Z,13.43
2023-10-30T01:17:20.065Z,15.95
2023-10-30T01:19:48.280Z,14.85
2023-10-30T01:22:17.699Z,14.93
2023-10-30T01:24:46.080Z,10.32
2023-10-30T01:27:13.785Z,14.40
2023-10-30T01:29:42.236Z,12.23
2023-10-30T01:32:09.941Z,9.33
2023-10-30T01:34:38.124Z,11.93
2023-10-30T01:37:05.934Z,9.23
2023-10-30T01:39:35.206Z,11.50
2023-10-30T01:42:03.402Z,11.82
2023-10-30T01:44:31.316Z,9.27
2023-10-30T01:47:00.152Z,12.10
2023-10-30T01:49:27.902Z,13.18
2023-10-30T01:51:55.699Z,10.15
2023-10-30T01:54:24.192Z,15.57
2023-10-30T01:56:53.325Z,7.97
2023-10-30T01:59:21.192Z,11.30
2023-10-30T02:01:48.884Z,8.73
2023-10-30T02:04:18.191Z,14.27
2023-10-30T02:06:45.989Z,12.63
2023-10-30T02:09:14.303Z,10.40
2023-10-30T02:11:42.066Z,13.15
2023-10-30T02:14:11.171Z,10.85
2023-10-30T02:16:39.247Z,9.85
2023-10-30T02:19:10.191Z,10.18
2023-10-30T02:21:38.061Z,9.30
2023-10-30T02:24:08.240Z,9.00
2023-10-30T02:26:37.332Z,9.90
2023-10-30T02:29:07.183Z,9.43
2023-10-30T02:31:35.104Z,11.27
2023-10-30T02:34:03.250Z,11.13
2023-10-30T02:36:31.321Z,13.93
2023-10-30T02:38:59.201Z,13.00
2023-10-30T02:41:30.268Z,10.77
2023-10-30T02:43:59.475Z,8.50
2023-10-30T02:46:28.552Z,8.82
2023-10-30T02:48:56.620Z,13.27
2023-10-30T02:51:25.266Z,11.65
2023-10-30T02:53:53.172Z,14.80
2023-10-30T02:56:20.974Z,13.65
2023-10-30T02:58:48.845Z,12.45
2023-10-30T03:01:18.230Z,13.18
2023-10-30T03:03:46.163Z,11.93
2023-10-30T03:06:14.278Z,11.13
2023-10-30T03:08:56.970Z,16.20
2023-10-30T03:11:25.394Z,12.57
2023-10-30T03:13:53.048Z,10.68
2023-10-30T03:16:22.326Z,13.30
2023-10-30T03:18:50.073Z,19.70
2023-10-30T03:21:18.330Z,10.00
2023-10-30T03:23:46.091Z,13.38
2023-10-30T03:26:14.268Z,12.43
2023-10-30T03:28:42.232Z,8.18
2023-10-30T03:31:11.292Z,18.77
2023-10-30T03:33:40.468Z,9.60
2023-10-30T03:36:08.555Z,11.65
2023-10-30T03:38:37.280Z,13.07
2023-10-30T03:41:05.404Z,11.93
2023-10-30T03:43:34.290Z,12.48
2023-10-30T03:46:02.087Z,10.73
2023-10-30T03:48:30.626Z,14.95
2023-10-30T03:51:00.680Z,15.23
2023-10-30T03:53:29.292Z,11.68
2023-10-30T03:55:57.826Z,17.23
2023-10-30T03:58:27.309Z,13.00
2023-10-30T04:00:54.963Z,10.98
2023-10-30T04:03:23.387Z,8.97
2023-10-30T04:05:51.133Z,14.52
2023-10-30T04:08:20.566Z,10.65
2023-10-30T04:10:48.807Z,21.20
2023-10-30T04:13:17.590Z,14.25
2023-10-30T04:15:45.326Z,11.20
2023-10-30T04:18:13.435Z,14.07
2023-10-30T04:20:41.169Z,12.15
2023-10-30T04:23:09.342Z,8.88
2023-10-30T04:25:38.578Z,13.13
2023-10-30T04:28:06.493Z,14.38
2023-10-30T04:31:00.631Z,16.77
2023-10-30T04:33:28.713Z,14.32
2023-10-30T04:35:56.449Z,16.58
2023-10-30T04:38:26.358Z,13.67
2023-10-30T04:40:55.449Z,16.13
2023-10-30T04:43:23.123Z,9.15
2023-10-30T04:45:51.393Z,16.08
2023-10-30T04:48:19.453Z,13.87
2023-10-30T04:50:47.372Z,8.57
2023-10-30T04:53:15.042Z,14.70
2023-10-30T04:55:42.780Z,13.48
2023-10-30T04:58:12.406Z,10.73
2023-10-30T05:00:40.415Z,13.90
2023-10-30T05:03:09.401Z,13.77
2023-10-30T05:05:37.472Z,12.60
2023-10-30T05:08:06.042Z,17.53
2023-10-30T05:10:33.869Z,10.50
2023-10-30T05:13:02.387Z,16.47
2023-10-30T05:15:31.524Z,10.05
2023-10-30T05:17:59.433Z,14.05
2023-10-30T05:20:27.341Z,14.63
2023-10-30T05:22:55.422Z,14.27
2023-10-30T05:25:35.796Z,10.98
2023-10-30T05:28:10.638Z,12.02
2023-10-30T05:30:42.403Z,13.57
2023-10-30T05:33:10.486Z,15.90
2023-10-30T05:35:38.240Z,12.73
2023-10-30T05:38:07.420Z,13.73
2023-10-30T05:40:35.433Z,13.35
2023-10-30T05:43:03.428Z,11.60
2023-10-30T05:45:31.187Z,13.40
2023-10-30T05:48:00.335Z,18.08
2023-10-30T05:50:28.433Z,15.75
2023-10-30T05:52:56.395Z,7.78
2023-10-30T05:55:24.453Z,11.43
2023-10-30T05:57:52.992Z,18.70
2023-10-30T06:00:21.482Z,18.65
2023-10-30T06:02:49.805Z,15.00
2023-10-30T06:05:19.783Z,14.13
2023-10-30T06:07:48.473Z,11.60
2023-10-30T06:10:20.745Z,19.00
2023-10-30T06:12:48.787Z,13.95
2023-10-30T06:15:17.499Z,14.38
2023-10-30T06:17:45.489Z,11.18
2023-10-30T06:20:14.512Z,18.80
2023-10-30T06:22:43.669Z,14.23
2023-10-30T06:25:15.741Z,12.15
2023-10-30T06:27:43.694Z,13.13
2023-10-30T06:30:14.553Z,13.70
2023-10-30T06:32:42.473Z,13.48
2023-10-30T06:35:11.535Z,17.08
2023-10-30T06:37:39.304Z,14.45
2023-10-30T06:40:09.526Z,17.58
2023-10-30T06:42:37.572Z,16.63
2023-10-30T06:45:06.543Z,16.30
2023-10-30T06:47:35.039Z,11.95
2023-10-30T06:50:03.522Z,9.40
2023-10-30T06:52:31.491Z,12.17
2023-10-30T06:54:59.477Z,12.55
2023-10-30T06:57:29.645Z,13.82
2023-10-30T06:59:58.329Z,16.98
2023-10-30T07:02:26.580Z,15.00
2023-10-30T07:04:54.392Z,14.57
2023-10-30T07:07:22.540Z,12.48
2023-10-30T07:09:51.670Z,12.57
2023-10-30T07:12:19.424Z,12.80
2023-10-30T07:15:12.561Z,12.13
2023-10-30T07:17:41.339Z,16.75
2023-10-30T07:20:10.559Z,12.82
2023-10-30T07:22:38.401Z,12.35
2023-10-30T07:25:07.519Z,11.50
2023-10-30T07:27:35.992Z,11.98
2023-10-30T07:30:05.855Z,13.13
2023-10-30T07:32:33.833Z,11.50
2023-10-30T07:37:47.756Z,12.52
2023-10-30T07:40:15.553Z,10.38
2023-10-30T07:42:43.423Z,9.07
2023-10-30T07:45:14.615Z,17.80
2023-10-30T07:47:44.549Z,17.10
2023-10-30T07:50:20.606Z,20.98
2023-10-30T07:52:48.435Z,13.48
2023-10-30T07:55:16.573Z,9.30
2023-10-30T07:57:44.367Z,15.77
2023-10-30T08:00:15.213Z,8.23
2023-10-30T08:02:43.911Z,14.82
2023-10-30T08:08:05.624Z,10.82
2023-10-30T08:10:33.456Z,14.18
2023-10-30T08:13:01.355Z,9.13
2023-10-30T08:15:30.690Z,11.00
2023-10-30T08:17:58.489Z,22.50
2023-10-30T08:23:10.638Z,11.13
2023-10-30T08:25:40.240Z,13.03
2023-10-30T08:28:10.053Z,11.50
2023-10-30T08:30:40.699Z,12.57
2023-10-30T08:33:10.205Z,10.10
2023-10-30T08:35:39.679Z,12.25
2023-10-30T08:38:08.192Z,11.10
2023-10-30T08:40:35.868Z,9.53
2023-10-30T08:43:03.668Z,9.50
2023-10-30T08:45:31.407Z,11.65
2023-10-30T08:48:15.711Z,13.48
2023-10-30T08:50:45.698Z,9.95
2023-10-30T08:53:13.734Z,6.63
2023-10-30T08:55:42.636Z,12.05
2023-10-30T08:58:10.704Z,14.90
2023-10-30T09:00:38.682Z,10.88
2023-10-30T09:03:08.984Z,16.33
2023-10-30T09:05:36.866Z,13.98
2023-10-30T09:08:05.717Z,12.98
2023-10-30T09:10:35.439Z,10.48
2023-10-30T09:13:03.706Z,14.57
2023-10-30T09:15:31.490Z,10.13
2023-10-30T09:17:59.755Z,9.00
2023-10-30T09:20:28.854Z,11.57
2023-10-30T09:22:56.794Z,9.53
2023-10-30T09:25:24.774Z,13.25
2023-10-30T09:27:53.854Z,9.65
2023-10-30T09:30:22.802Z,6.65
2023-10-30T09:32:51.289Z,12.15
2023-10-30T09:35:19.898Z,13.85
2023-10-30T09:37:48.980Z,8.35
2023-10-30T09:40:17.736Z,10.75
2023-10-30T09:42:53.809Z,11.23
2023-10-30T09:45:23.890Z,9.18
2023-10-30T09:47:54.538Z,10.60
2023-10-30T09:50:23.753Z,8.50
2023-10-30T09:52:54.225Z,8.10
2023-10-30T09:55:24.005Z,9.65
2023-10-30T09:57:54.253Z,10.67
2023-10-30T10:00:22.585Z,9.35
2023-10-30T10:02:50.985Z,9.80
2023-10-30T10:05:19.758Z,6.00
2023-10-30T10:07:47.806Z,9.18
2023-10-30T10:10:19.735Z,11.07
2023-10-30T10:12:52.047Z,6.83
2023-10-30T10:15:21.748Z,6.87
2023-10-30T10:17:51.811Z,10.65
2023-10-30T10:20:23.275Z,8.50
2023-10-30T10:22:51.806Z,9.20
2023-10-30T10:25:21.617Z,5.68
2023-10-30T10:27:53.136Z,8.73
2023-10-30T10:30:25.017Z,8.17
2023-10-30T10:32:59.900Z,7.30
2023-10-30T10:35:27.926Z,5.47
2023-10-30T10:38:10.945Z,6.57
2023-10-30T10:40:40.844Z,9.57
2023-10-30T10:43:10.112Z,5.63
2023-10-30T10:45:38.346Z,6.73
2023-10-30T10:48:07.840Z,7.75
2023-10-30T10:50:36.445Z,7.55
2023-10-30T10:53:06.021Z,7.07
2023-10-30T10:55:37.250Z,5.53
2023-10-30T10:58:12.110Z,6.72
2023-10-30T11:00:43.921Z,4.47
2023-10-30T11:03:12.171Z,5.10
2023-10-30T11:05:40.904Z,4.97
2023-10-30T11:08:18.400Z,5.82
2023-10-30T11:10:51.015Z,6.55
2023-10-30T11:13:27.772Z,4.55
2023-10-30T11:15:59.973Z,5.97
2023-10-30T11:18:29.223Z,6.80
2023-10-30T11:21:11.006Z,5.65
2023-10-30T11:23:49.883Z,7.13
2023-10-30T11:26:39.131Z,3.05
2023-10-30T11:29:11.122Z,7.60
2023-10-30T11:31:55.852Z,4.03
2023-10-30T11:34:32.979Z,6.40
2023-10-30T11:37:03.101Z,4.60
2023-10-30T11:39:34.936Z,4.05
2023-10-30T11:42:03.200Z,7.47
2023-10-30T11:44:32.697Z,4.32
2023-10-30T11:47:00.939Z,5.53
2023-10-30T11:49:32.075Z,6.38
2023-10-30T11:52:00.158Z,3.67
2023-10-30T11:54:35.198Z,6.57
2023-10-30T11:57:03.332Z,7.40
2023-10-30T11:59:32.924Z,5.88
2023-10-30T12:02:02.378Z,3.20
2023-10-30T12:04:33.586Z,4.03
2023-10-30T12:07:01.481Z,5.78
2023-10-30T12:09:29.967Z,3.70
2023-10-30T12:11:57.860Z,4.72
2023-10-30T12:14:25.647Z,6.85
2023-10-30T12:16:54.989Z,4.32
2023-10-30T12:19:23.687Z,3.45
2023-10-30T12:21:52.015Z,7.10
2023-10-30T12:24:20.245Z,3.95
2023-10-30T12:26:49.703Z,3.45
2023-10-30T12:29:23.690Z,5.47
2023-10-30T12:32:05.724Z,4.80
2023-10-30T12:34:36.943Z,3.17
2023-10-30T12:37:18.982Z,5.38
2023-10-30T12:40:01.312Z,2.60
2023-10-30T12:42:31.302Z,4.32
2023-10-30T12:44:59.033Z,2.55
2023-10-30T12:47:29.038Z,3.95
2023-10-30T12:49:56.694Z,3.13
2023-10-30T12:52:24.916Z,3.08
2023-10-30T12:54:53.050Z,2.35
2023-10-30T12:57:20.984Z,3.97
2023-10-30T12:59:49.019Z,3.90
2023-10-30T13:02:16.781Z,1.85
2023-10-30T13:04:47.323Z,3.72
2023-10-30T13:07:16.687Z,2.42
2023-10-30T13:09:45.074Z,3.25
2023-10-30T13:12:13.064Z,3.10
2023-10-30T13:14:41.695Z,4.75
2023-10-30T13:17:09.373Z,4.55
2023-10-30T13:19:38.037Z,2.13
2023-10-30T13:22:07.661Z,2.80
2023-10-30T13:24:35.680Z,5.30
2023-10-30T13:27:04.040Z,3.53
2023-10-30T13:29:33.040Z,1.90
2023-10-30T13:32:01.070Z,3.20
2023-10-30T13:34:28.983Z,2.10
2023-10-30T13:36:57.093Z,2.97
2023-10-30T13:39:26.313Z,2.05
2023-10-30T13:41:53.999Z,1.60
2023-10-30T13:44:22.358Z,5.20
2023-10-30T13:47:07.311Z,2.25
2023-10-30T13:53:04.194Z,3.20
2023-10-30T13:55:33.400Z,3.70
2023-10-30T13:58:01.406Z,4.93
2023-10-30T14:00:32.229Z,1.60
2023-10-30T14:03:00.177Z,1.85
2023-10-30T14:05:30.097Z,1.92
2023-10-30T14:10:35.350Z,4.22
2023-10-30T14:13:03.486Z,2.60
2023-10-30T14:15:32.304Z,1.87
2023-10-30T14:18:00.026Z,2.78
2023-10-30T14:20:28.137Z,1.57
2023-10-30T14:25:32.130Z,1.92
2023-10-30T14:28:01.229Z,2.22
2023-10-30T14:30:30.172Z,2.73
2023-10-30T14:32:57.881Z,3.72
2023-10-30T14:35:25.604Z,2.53
2023-10-30T14:37:54.171Z,2.17
2023-10-30T14:40:22.012Z,3.00
2023-10-30T14:42:50.196Z,2.40
2023-10-30T14:45:20.786Z,2.20
2023-10-30T14:47:48.695Z,1.35
2023-10-30T14:50:17.477Z,2.03
2023-10-30T14:52:45.145Z,1.42
2023-10-30T14:55:13.356Z,3.25
2023-10-30T14:57:41.133Z,1.90
2023-10-30T15:00:10.138Z,2.15
2023-10-30T15:02:40.231Z,1.55
2023-10-30T15:05:11.734Z,4.18
2023-10-30T15:07:41.444Z,3.35
2023-10-30T15:10:10.210Z,6.13
2023-10-30T15:12:38.323Z,2.45
2023-10-30T15:15:28.501Z,4.40
2023-10-30T15:17:57.989Z,4.63
2023-10-30T15:20:26.230Z,3.83
2023-10-30T15:22:54.023Z,5.20
2023-10-30T15:25:23.505Z,2.63
2023-10-30T15:27:51.411Z,7.25
2023-10-30T15:30:20.213Z,4.60
2023-10-30T15:32:47.922Z,4.80
2023-10-30T15:35:17.995Z,2.45
2023-10-30T15:37:46.203Z,3.33
2023-10-30T15:40:14.662Z,4.07
2023-10-30T15:42:42.686Z,3.45
2023-10-30T15:45:11.255Z,1.90
2023-10-30T15:47:39.642Z,4.93
2023-10-30T15:50:10.228Z,4.45
2023-10-30T15:57:41.291Z,5.07
2023-10-30T16:00:09.837Z,3.47
2023-10-30T16:02:38.404Z,5.78
2023-10-30T16:05:06.612Z,7.18
2023-10-30T16:07:37.846Z,5.53
2023-10-30T16:12:40.594Z,4.13
2023-10-30T16:15:10.828Z,4.40
2023-10-30T16:17:39.406Z,4.45
2023-10-30T16:22:43.617Z,6.63
2023-10-30T16:25:15.535Z,6.00
2023-10-30T16:27:43.573Z,3.85
2023-10-30T16:30:12.102Z,5.10
2023-10-30T16:32:40.470Z,6.20
2023-10-30T16:35:08.942Z,4.43
2023-10-30T16:37:36.626Z,3.58
2023-10-30T16:40:05.316Z,7.00
2023-10-30T16:42:35.931Z,6.72
2023-10-30T16:45:25.358Z,6.00
2023-10-30T16:47:53.031Z,9.67
2023-10-30T16:50:21.356Z,8.73
2023-10-30T16:52:49.049Z,6.43
2023-10-30T16:55:17.370Z,6.90
2023-10-30T16:57:46.557Z,7.53
2023-10-30T17:00:15.332Z,6.85
2023-10-30T17:02:43.456Z,6.50
2023-10-30T17:05:11.468Z,8.10
2023-10-30T17:07:39.164Z,10.00
2023-10-30T17:10:10.378Z,9.95
2023-10-30T17:12:38.076Z,10.48
2023-10-30T17:15:09.536Z,6.35
2023-10-30T17:17:37.310Z,5.70
2023-10-30T17:20:06.381Z,8.07
2023-10-30T17:22:34.928Z,7.55
2023-10-30T17:25:03.399Z,7.47
2023-10-30T17:27:31.192Z,7.60
2023-10-30T17:29:58.834Z,8.50
2023-10-30T17:32:28.402Z,8.95
2023-10-30T17:34:56.467Z,5.85
2023-10-30T17:37:26.412Z,9.50
2023-10-30T17:39:54.239Z,7.30
2023-10-30T17:42:23.441Z,9.47
2023-10-30T17:44:51.310Z,5.95
2023-10-30T17:47:19.303Z,9.57
2023-10-30T17:49:49.708Z,8.10
2023-10-30T17:52:17.856Z,6.15
2023-10-30T17:54:46.396Z,9.80
2023-10-30T17:57:14.565Z,5.68
2023-10-30T17:59:44.738Z,6.00
2023-10-30T18:02:13.480Z,6.53
2023-10-30T18:04:41.182Z,5.68
2023-10-30T18:07:11.424Z,5.82
2023-10-30T18:09:39.225Z,4.35
2023-10-30T18:12:08.050Z,4.85
2023-10-30T18:14:38.235Z,5.20
2023-10-30T18:17:06.556Z,4.00
2023-10-30T18:19:34.232Z,3.80
2023-10-30T18:22:02.456Z,7.10
2023-10-30T18:24:32.209Z,4.65
2023-10-30T18:27:00.474Z,8.43
2023-10-30T18:29:29.308Z,8.13
2023-10-30T18:31:57.526Z,4.72
2023-10-30T18:34:25.227Z,6.43
2023-10-30T18:36:53.486Z,5.73
2023-10-30T18:39:21.310Z,3.07
2023-10-30T18:41:50.577Z,2.90
2023-10-30T18:44:19.483Z,4.82
2023-10-30T18:46:47.412Z,5.40
2023-10-30T18:49:37.524Z,3.33
2023-10-30T18:52:05.790Z,4.60
2023-10-30T18:54:34.511Z,3.65
2023-10-30T18:57:03.651Z,5.50
2023-10-30T19:02:13.621Z,6.10
2023-10-30T19:04:41.573Z,5.97
2023-10-30T19:07:10.512Z,4.63
2023-10-30T19:09:38.298Z,3.28
2023-10-30T19:12:08.520Z,3.63
2023-10-30T19:14:36.874Z,4.50
2023-10-30T19:17:05.572Z,5.97
2023-10-30T19:19:36.082Z,4.15
2023-10-30T19:22:04.603Z,3.77
2023-10-30T19:24:32.536Z,7.38
2023-10-30T19:27:00.461Z,5.40
2023-10-30T19:29:29.678Z,6.32
2023-10-30T19:31:57.720Z,7.90
2023-10-30T19:34:26.800Z,6.72
2023-10-30T19:36:54.868Z,6.10
2023-10-30T19:39:22.694Z,5.85
2023-10-30T19:41:50.915Z,7.72
2023-10-30T19:44:18.874Z,6.88
2023-10-30T19:46:48.611Z,5.87
2023-10-30T19:49:16.693Z,5.93
2023-10-30T19:52:06.815Z,8.30
2023-10-30T19:54:35.569Z,5.03
2023-10-30T19:57:03.404Z,7.43
2023-10-30T19:59:31.179Z,7.07
2023-10-30T20:02:01.666Z,4.90
2023-10-30T20:04:29.427Z,5.53
2023-10-30T20:06:57.606Z,8.20
2023-10-30T20:09:37.531Z,6.60
2023-10-30T20:12:10.744Z,9.00
2023-10-30T20:14:38.682Z,11.75
2023-10-30T20:17:10.634Z,9.23
2023-10-30T20:19:38.906Z,6.88
2023-10-30T20:22:07.691Z,9.68
2023-10-30T20:24:36.187Z,8.77
2023-10-30T20:27:04.654Z,9.00
2023-10-30T20:29:51.468Z,8.27
2023-10-30T20:32:20.689Z,9.60
2023-10-30T20:34:48.690Z,11.77
2023-10-30T20:37:16.531Z,10.38
2023-10-30T20:39:44.671Z,11.40
2023-10-30T20:42:13.334Z,14.50
2023-10-30T20:44:41.655Z,12.80
2023-10-30T20:47:09.844Z,12.15
2023-10-30T20:49:41.692Z,12.55
2023-10-30T20:52:09.751Z,10.63
2023-10-30T20:54:37.681Z,13.18
2023-10-30T20:57:06.111Z,14.00
2023-10-30T20:59:33.771Z,13.13
2023-10-30T21:02:02.734Z,13.20
2023-10-30T21:04:30.921Z,12.50
2023-10-30T21:07:00.081Z,10.30
2023-10-30T21:09:28.664Z,9.45
2023-10-30T21:11:56.375Z,10.05
2023-10-30T21:14:24.667Z,9.20
2023-10-30T21:16:53.373Z,9.40
2023-10-30T21:19:21.707Z,8.43
2023-10-30T21:21:49.380Z,10.30
2023-10-30T21:24:28.726Z,9.73
2023-10-30T21:26:56.460Z,8.00
2023-10-30T21:29:24.686Z,7.25
2023-10-30T21:31:52.414Z,8.70
2023-10-30T21:34:22.985Z,12.57
2023-10-30T21:36:52.594Z,10.32
2023-10-30T21:39:20.247Z,9.20
2023-10-30T21:41:49.705Z,8.80
2023-10-30T21:44:17.389Z,8.17
2023-10-30T21:46:45.902Z,9.75
2023-10-30T21:49:15.034Z,10.50
2023-10-30T21:51:43.760Z,12.38
2023-10-30T21:54:11.463Z,10.45
2023-10-30T21:56:39.315Z,9.55
2023-10-30T21:59:09.098Z,12.18
2023-10-30T22:01:36.947Z,9.63
2023-10-30T22:04:05.224Z,9.80
2023-10-30T22:06:33.764Z,10.07
2023-10-30T22:09:01.556Z,14.68
2023-10-30T22:11:30.762Z,16.77
2023-10-30T22:13:59.034Z,9.47
2023-10-30T22:16:28.888Z,10.90
2023-10-30T22:18:56.950Z,11.60
2023-10-30T22:21:24.763Z,11.43
2023-10-30T22:23:52.595Z,12.68
2023-10-30T22:26:20.773Z,13.13
2023-10-30T22:28:48.564Z,10.13
2023-10-30T22:31:16.866Z,13.37
2023-10-30T22:33:46.017Z,13.90
2023-10-30T22:36:16.381Z,16.60
2023-10-30T22:38:44.809Z,15.00
2023-10-30T22:41:12.539Z,18.27
2023-10-30T22:43:40.959Z,15.15
2023-10-30T22:46:08.800Z,17.10
2023-10-30T22:48:36.490Z,17.00
2023-10-30T22:51:06.798Z,14.23
2023-10-30T22:53:34.491Z,15.95
2023-10-30T22:56:03.253Z,18.33
2023-10-30T22:58:31.982Z,14.30
2023-10-30T23:00:59.889Z,15.97
2023-10-30T23:03:28.964Z,14.90
2023-10-30T23:05:56.738Z,14.75
2023-10-30T23:08:27.075Z,15.50
2023-10-30T23:10:54.986Z,18.23
2023-10-30T23:13:22.841Z,16.42
2023-10-30T23:15:50.570Z,16.98
2023-10-30T23:18:18.874Z,17.23
2023-10-30T23:20:46.612Z,19.27
2023-10-30T23:23:14.318Z,24.30
2023-10-30T23:25:44.009Z,17.63
2023-10-30T23:28:11.755Z,18.03
2023-10-30T23:30:39.861Z,20.75
2023-10-30T23:33:07.607Z,18.70
2023-10-30T23:35:35.337Z,22.15
2023-10-30T23:38:08.376Z,21.33
2023-10-30T23:40:41.138Z,25.17
2023-10-30T23:43:10.359Z,20.42
2023-10-30T23:45:39.019Z,21.95
2023-10-30T23:48:07.345Z,20.65
2023-10-30T23:50:35.045Z,19.80
2023-10-30T23:53:04.052Z,19.77
2023-10-30T23:55:31.845Z,18.80
2023-10-30T23:57:59.881Z,21.20
